Archival Weather

Annapolis United States Naval

Annapolis United States Naval, Maryland (KNAK)

Report from: Tuesday, June 6, 2023 3:54 AM UTC
Current time: Sunday, July 14, 2024 2:14 AM UTC

Current weather – Weather history – Daily summaries
Weather forecast

Temperature17.8°C (64.0°F)
Dew point10.6°C (51.1°F)
Winds Calm
Visibility10 mi. (16.1 km)
Clouds Sky clear
Altimeter29.87 in.Hg (1012 mB)
Relative humidity63 %
Density altitude562 ft. (171 m)
Sea-level pressure101.2 kPa (1012 mB, 29.88 in.Hg)
Remarks Fully automated report
Automated weather observing station with precipitation discriminator
Flight conditions Visual Meteorological Conditions
Raw dataKNAK 060354Z AUTO 00000KT 10SM CLR 18/11 A2987 RMK AO2 SLP117 T01780106
An error has occurred. This application may no longer respond until reloaded. Reload 🗙